Time;durP1;ratioP1;P1;durP2;ratioP2;P2;SDS_P1;SDS_P2;PMS_P1;PMS_P2;Temp;Humidity;BMP_temperature;BMP_pressure;BME280_temperature;BME280_humidity;BME280_pressure;Samples;Min_cycle;Max_cycle;Signal;HPM_P1;HPM_P2
2022/01/31 00:01:46;;;;;;;22.83;17.08;;;;;;;;;;5028847;28;20029;-71
2022/01/31 00:04:11;;;;;;;24.35;15.95;;;;;;;;;;5028153;28;20414;-72
2022/01/31 00:06:37;;;;;;;24.77;15.88;;;;;;;;;;5028914;28;20040;-70
2022/01/31 00:09:03;;;;;;;18.15;16.15;;;;;;;;;;5029172;28;20477;-71
2022/01/31 00:11:29;;;;;;;22.98;16.55;;;;;;;;;;5028306;28;20033;-71
2022/01/31 00:14:01;;;;;;;25.73;16.52;;;;;;;;;;5027190;28;20060;-71
2022/01/31 00:16:32;;;;;;;18.42;16.13;;;;;;;;;;5027637;28;20040;-71
2022/01/31 00:18:58;;;;;;;23.67;15.38;;;;;;;;;;5029052;28;19921;-72
2022/01/31 00:21:24;;;;;;;23.48;16.17;;;;;;;;;;5027833;28;20516;-71
2022/01/31 00:23:50;;;;;;;21.73;16.70;;;;;;;;;;5027923;28;20036;-71
2022/01/31 00:26:15;;;;;;;22.15;16.42;;;;;;;;;;5029304;28;20033;-71
2022/01/31 00:28:41;;;;;;;20.20;15.50;;;;;;;;;;5028977;28;20037;-72
2022/01/31 00:31:06;;;;;;;22.38;15.20;;;;;;;;;;5010036;28;20108;-72
2022/01/31 00:33:32;;;;;;;23.25;15.63;;;;;;;;;;5011391;28;20044;-71
2022/01/31 00:36:00;;;;;;;22.23;15.10;;;;;;;;;;5028746;28;20033;-71
2022/01/31 00:38:26;;;;;;;23.90;15.45;;;;;;;;;;5027362;28;20087;-72
2022/01/31 00:40:51;;;;;;;21.98;15.98;;;;;;;;;;5010638;28;20146;-72
2022/01/31 00:43:20;;;;;;;23.45;15.68;;;;;;;;;;5028585;28;20400;-71
2022/01/31 00:45:58;;;;;;;16.10;13.43;;;;;;;;;;5028130;28;20037;-71
2022/01/31 00:48:26;;;;;;;25.65;15.35;;;;;;;;;;5027323;28;20029;-72
2022/01/31 00:50:52;;;;;;;22.23;15.60;;;;;;;;;;5028048;28;20417;-72
2022/01/31 00:53:17;;;;;;;22.85;15.75;;;;;;;;;;5010395;28;20037;-72
2022/01/31 00:55:44;;;;;;;37.22;16.30;;;;;;;;;;5027224;28;20065;-72
2022/01/31 00:58:10;;;;;;;28.83;16.73;;;;;;;;;;5028446;28;20064;-71
2022/01/31 01:00:36;;;;;;;24.70;14.15;;;;;;;;;;5027216;28;20041;-72
2022/01/31 01:03:03;;;;;;;24.63;15.35;;;;;;;;;;5027204;28;20471;-72
2022/01/31 01:05:29;;;;;;;23.70;14.82;;;;;;;;;;5009638;28;20031;-71
2022/01/31 01:07:55;;;;;;;21.30;15.27;;;;;;;;;;5010275;28;20072;-71
2022/01/31 01:10:21;;;;;;;20.95;15.40;;;;;;;;;;5026745;28;20053;-71
2022/01/31 01:12:47;;;;;;;17.00;15.15;;;;;;;;;;5027420;28;20064;-71
2022/01/31 01:15:14;;;;;;;17.48;14.88;;;;;;;;;;5027691;28;20125;-72
2022/01/31 01:17:40;;;;;;;20.20;14.15;;;;;;;;;;5028084;28;20113;-72
2022/01/31 01:20:07;;;;;;;22.40;14.57;;;;;;;;;;5028340;28;20045;-71
2022/01/31 01:22:33;;;;;;;16.75;14.27;;;;;;;;;;5010184;28;20109;-71
2022/01/31 01:25:02;;;;;;;24.98;14.70;;;;;;;;;;5010056;28;20139;-71
2022/01/31 01:27:28;;;;;;;22.65;13.82;;;;;;;;;;5010649;28;20030;-71
2022/01/31 01:29:55;;;;;;;27.73;16.55;;;;;;;;;;5026562;28;20099;-72
2022/01/31 01:32:24;;;;;;;24.55;16.10;;;;;;;;;;5021272;28;20047;-71
2022/01/31 01:34:49;;;;;;;18.95;15.60;;;;;;;;;;5029570;28;20037;-71
2022/01/31 01:37:15;;;;;;;21.92;15.10;;;;;;;;;;5014127;28;20453;-72
2022/01/31 01:39:42;;;;;;;25.85;15.60;;;;;;;;;;5031817;28;20045;-72
2022/01/31 01:42:08;;;;;;;20.73;15.43;;;;;;;;;;5029575;28;20042;-72
2022/01/31 01:44:42;;;;;;;21.25;15.00;;;;;;;;;;5029829;28;20447;-72
2022/01/31 01:47:09;;;;;;;23.05;15.85;;;;;;;;;;5031958;28;20033;-71
2022/01/31 01:49:35;;;;;;;17.23;15.32;;;;;;;;;;5030775;28;20094;-72
2022/01/31 01:52:01;;;;;;;25.40;15.15;;;;;;;;;;5014631;28;20116;-71
2022/01/31 01:54:27;;;;;;;23.02;16.10;;;;;;;;;;5015050;28;20137;-72
2022/01/31 01:56:53;;;;;;;21.42;15.27;;;;;;;;;;5030229;28;20113;-70
2022/01/31 01:59:18;;;;;;;24.90;15.98;;;;;;;;;;5029228;28;20033;-70
2022/01/31 02:02:12;;;;;;;23.70;15.77;;;;;;;;;;5013229;28;20039;-71
2022/01/31 02:04:40;;;;;;;24.48;16.08;;;;;;;;;;5030031;28;20034;-71
2022/01/31 02:07:25;;;;;;;21.98;14.07;;;;;;;;;;5029541;28;20040;-71
2022/01/31 02:09:55;;;;;;;26.48;15.48;;;;;;;;;;5014168;28;20104;-71
2022/01/31 02:12:21;;;;;;;24.55;16.08;;;;;;;;;;5029189;28;20037;-70
2022/01/31 02:14:46;;;;;;;24.30;15.52;;;;;;;;;;5013993;28;20037;-70
2022/01/31 02:17:30;;;;;;;23.02;15.07;;;;;;;;;;5026254;28;20033;-70
2022/01/31 02:20:12;;;;;;;20.65;15.52;;;;;;;;;;5012926;28;20041;-70
2022/01/31 02:22:37;;;;;;;25.08;15.93;;;;;;;;;;5029903;28;20046;-70
2022/01/31 02:25:26;;;;;;;19.23;15.27;;;;;;;;;;5021668;28;20488;-72
2022/01/31 02:28:09;;;;;;;21.05;15.63;;;;;;;;;;5028605;28;20045;-71
2022/01/31 02:30:35;;;;;;;19.58;15.02;;;;;;;;;;5029747;28;20044;-71
2022/01/31 02:33:00;;;;;;;21.25;15.23;;;;;;;;;;5030943;28;20073;-72
2022/01/31 02:35:27;;;;;;;22.40;16.02;;;;;;;;;;5029498;28;20045;-72
2022/01/31 02:37:53;;;;;;;24.27;16.45;;;;;;;;;;5028300;28;20065;-71
2022/01/31 02:40:29;;;;;;;24.45;14.60;;;;;;;;;;5028877;28;20042;-71
2022/01/31 02:42:57;;;;;;;21.27;15.45;;;;;;;;;;5029670;28;20037;-71
2022/01/31 02:45:26;;;;;;;21.33;14.90;;;;;;;;;;5010924;28;20044;-71
2022/01/31 02:47:55;;;;;;;20.95;15.63;;;;;;;;;;5012173;28;20037;-70
2022/01/31 02:50:21;;;;;;;16.75;14.95;;;;;;;;;;5029094;28;20033;-70
2022/01/31 02:52:57;;;;;;;22.67;14.98;;;;;;;;;;5000738;28;20040;-70
2022/01/31 02:55:23;;;;;;;19.27;15.57;;;;;;;;;;5010984;28;20033;-71
2022/01/31 02:57:49;;;;;;;20.38;14.90;;;;;;;;;;5012158;28;20168;-72
2022/01/31 03:00:15;;;;;;;14.82;13.43;;;;;;;;;;5030029;28;20120;-72
2022/01/31 03:03:01;;;;;;;20.25;15.32;;;;;;;;;;5027998;28;20037;-71
2022/01/31 03:05:26;;;;;;;19.40;13.68;;;;;;;;;;5014396;28;20061;-72
2022/01/31 03:07:52;;;;;;;17.13;14.15;;;;;;;;;;5028744;28;20038;-72
2022/01/31 03:10:18;;;;;;;21.35;14.43;;;;;;;;;;5028682;28;20037;-71
2022/01/31 03:12:44;;;;;;;22.65;15.65;;;;;;;;;;5027658;28;20048;-70
2022/01/31 03:15:10;;;;;;;17.38;14.75;;;;;;;;;;5011590;28;20044;-71
2022/01/31 03:17:54;;;;;;;20.83;14.00;;;;;;;;;;5029554;28;20508;-70
2022/01/31 03:20:23;;;;;;;19.13;14.80;;;;;;;;;;5028346;28;20136;-70
2022/01/31 03:22:49;;;;;;;16.10;14.00;;;;;;;;;;5026282;28;20540;-70
2022/01/31 03:25:15;;;;;;;17.30;13.77;;;;;;;;;;5011093;28;20381;-70
2022/01/31 03:27:42;;;;;;;17.85;14.23;;;;;;;;;;5028426;28;20061;-70
2022/01/31 03:30:26;;;;;;;15.90;13.88;;;;;;;;;;5029522;28;20542;-70
2022/01/31 03:32:55;;;;;;;20.05;14.40;;;;;;;;;;5027103;28;20564;-70
2022/01/31 03:35:23;;;;;;;22.23;16.05;;;;;;;;;;5027728;28;20504;-70
2022/01/31 03:37:48;;;;;;;24.08;14.88;;;;;;;;;;5028323;28;20033;-70
2022/01/31 03:40:20;;;;;;;17.23;14.90;;;;;;;;;;5010606;28;20099;-71
2022/01/31 03:42:46;;;;;;;16.77;14.35;;;;;;;;;;5011190;28;20171;-71
2022/01/31 03:45:13;;;;;;;22.95;14.70;;;;;;;;;;5020878;28;20112;-71
2022/01/31 03:47:46;;;;;;;18.67;14.23;;;;;;;;;;5027276;28;20554;-70
2022/01/31 03:50:17;;;;;;;21.40;14.10;;;;;;;;;;5010584;28;20041;-70
2022/01/31 03:52:46;;;;;;;15.00;13.45;;;;;;;;;;5011105;28;20034;-70
2022/01/31 03:55:15;;;;;;;17.25;14.10;;;;;;;;;;5009701;28;20040;-70
2022/01/31 03:57:45;;;;;;;20.35;14.23;;;;;;;;;;5010395;28;20090;-70
2022/01/31 04:00:31;;;;;;;18.65;14.43;;;;;;;;;;4992674;28;20500;-70
2022/01/31 04:02:57;;;;;;;18.60;14.98;;;;;;;;;;5025119;28;20082;-70
2022/01/31 04:05:22;;;;;;;25.83;16.35;;;;;;;;;;5025585;28;20036;-70
2022/01/31 04:07:48;;;;;;;22.70;15.85;;;;;;;;;;5028715;28;20343;-70
2022/01/31 04:10:13;;;;;;;19.98;14.75;;;;;;;;;;5030053;28;20049;-70
2022/01/31 04:12:39;;;;;;;20.00;14.35;;;;;;;;;;5029479;28;20048;-70
2022/01/31 04:15:05;;;;;;;24.55;15.65;;;;;;;;;;5027073;28;20029;-70
2022/01/31 04:17:32;;;;;;;18.40;15.35;;;;;;;;;;5010968;28;20037;-70
2022/01/31 04:19:58;;;;;;;19.50;16.38;;;;;;;;;;5029334;28;20117;-70
2022/01/31 04:22:26;;;;;;;26.75;16.10;;;;;;;;;;5029183;28;20112;-70
2022/01/31 04:24:58;;;;;;;20.40;14.53;;;;;;;;;;5026700;28;20045;-70
2022/01/31 04:27:27;;;;;;;17.90;15.68;;;;;;;;;;5028956;28;20286;-69
2022/01/31 04:29:53;;;;;;;;;;;;;;;;;;5029494;28;20044;-69
2022/01/31 04:32:18;;;;;;;25.27;16.40;;;;;;;;;;5028239;28;19913;-71
2022/01/31 04:34:44;;;;;;;18.42;14.48;;;;;;;;;;5028319;28;20544;-70
2022/01/31 04:37:10;;;;;;;21.90;15.55;;;;;;;;;;5029069;28;20587;-70
2022/01/31 04:39:36;;;;;;;20.35;14.95;;;;;;;;;;5027024;28;20045;-69
2022/01/31 04:42:02;;;;;;;17.30;14.57;;;;;;;;;;5028593;28;20060;-71
2022/01/31 04:44:28;;;;;;;16.45;14.70;;;;;;;;;;5028174;28;20044;-70
2022/01/31 04:46:54;;;;;;;17.73;15.23;;;;;;;;;;5028948;28;20042;-70
2022/01/31 04:49:21;;;;;;;22.02;15.23;;;;;;;;;;5025308;28;20029;-70
2022/01/31 04:51:47;;;;;;;15.45;13.88;;;;;;;;;;5028217;28;20025;-70
2022/01/31 04:54:12;;;;;;;15.65;14.15;;;;;;;;;;5028045;28;20113;-71
2022/01/31 04:56:41;;;;;;;17.75;14.02;;;;;;;;;;5029423;28;20143;-70
2022/01/31 04:59:06;;;;;;;19.00;14.65;;;;;;;;;;5025314;28;20060;-70
2022/01/31 05:01:32;;;;;;;17.98;14.65;;;;;;;;;;5028170;28;20481;-70
2022/01/31 05:03:58;;;;;;;19.70;13.50;;;;;;;;;;5028151;28;20396;-72
2022/01/31 05:06:32;;;;;;;27.73;15.70;;;;;;;;;;5023989;28;20421;-72
2022/01/31 05:08:58;;;;;;;23.17;15.48;;;;;;;;;;5027676;28;20030;-72
2022/01/31 05:11:24;;;;;;;19.33;14.38;;;;;;;;;;5026532;28;20045;-72
2022/01/31 05:13:49;;;;;;;17.92;15.07;;;;;;;;;;5027851;28;20542;-70
2022/01/31 05:16:15;;;;;;;17.92;14.63;;;;;;;;;;5028490;28;20503;-70
2022/01/31 05:18:41;;;;;;;18.92;14.50;;;;;;;;;;5027286;28;20033;-70
2022/01/31 05:21:08;;;;;;;18.83;14.60;;;;;;;;;;5026208;28;20493;-70
2022/01/31 05:23:34;;;;;;;23.55;14.13;;;;;;;;;;5027628;28;20052;-70
2022/01/31 05:26:00;;;;;;;21.70;14.05;;;;;;;;;;5028209;28;20112;-71
2022/01/31 05:28:26;;;;;;;16.38;14.63;;;;;;;;;;5025666;28;20056;-71
2022/01/31 05:30:52;;;;;;;13.65;12.30;;;;;;;;;;5028280;28;20459;-71
2022/01/31 05:33:17;;;;;;;16.63;14.20;;;;;;;;;;5028503;28;20452;-69
2022/01/31 05:35:45;;;;;;;15.15;13.23;;;;;;;;;;5023678;28;20520;-70
2022/01/31 05:38:10;;;;;;;15.57;13.93;;;;;;;;;;5027819;28;20033;-71
2022/01/31 05:40:36;;;;;;;17.98;13.10;;;;;;;;;;5027519;28;20407;-70
2022/01/31 05:43:02;;;;;;;22.30;13.15;;;;;;;;;;5025725;28;20058;-70
2022/01/31 05:45:27;;;;;;;20.38;12.45;;;;;;;;;;5018913;28;20025;-70
2022/01/31 05:47:53;;;;;;;15.82;12.13;;;;;;;;;;5027455;28;20037;-70
2022/01/31 05:50:19;;;;;;;19.20;13.40;;;;;;;;;;5027695;28;20387;-70
2022/01/31 05:52:45;;;;;;;18.13;13.35;;;;;;;;;;5024154;28;20093;-70
2022/01/31 05:55:12;;;;;;;19.08;12.25;;;;;;;;;;5006671;28;20068;-70
2022/01/31 05:57:37;;;;;;;13.73;12.10;;;;;;;;;;5026227;28;20083;-70
2022/01/31 06:00:07;;;;;;;14.23;12.73;;;;;;;;;;5027635;28;20045;-70
2022/01/31 06:02:33;;;;;;;21.13;12.98;;;;;;;;;;5025856;28;20048;-70
2022/01/31 06:05:01;;;;;;;13.90;12.52;;;;;;;;;;5026041;28;20136;-70
2022/01/31 06:07:26;;;;;;;14.30;11.68;;;;;;;;;;5026666;28;20536;-70
2022/01/31 06:09:52;;;;;;;20.38;12.85;;;;;;;;;;5029391;28;20033;-70
2022/01/31 06:12:17;;;;;;;18.02;12.48;;;;;;;;;;5035397;28;20042;-72
2022/01/31 06:14:43;;;;;;;15.73;12.30;;;;;;;;;;5035160;28;20508;-70
2022/01/31 06:17:08;;;;;;;13.23;11.88;;;;;;;;;;5033020;28;20397;-71
2022/01/31 06:19:34;;;;;;;15.75;11.25;;;;;;;;;;5034488;28;20103;-70
2022/01/31 06:22:00;;;;;;;14.90;11.82;;;;;;;;;;5039654;28;20033;-70
2022/01/31 06:24:26;;;;;;;13.55;12.10;;;;;;;;;;5029701;28;20037;-70
2022/01/31 06:26:53;;;;;;;15.35;11.57;;;;;;;;;;5012870;28;20049;-70
2022/01/31 06:29:26;;;;;;;18.33;12.68;;;;;;;;;;5013209;28;20132;-71
2022/01/31 06:32:05;;;;;;;16.05;12.23;;;;;;;;;;5028804;28;20120;-71
2022/01/31 06:34:31;;;;;;;17.30;12.18;;;;;;;;;;5030253;28;20482;-71
2022/01/31 06:36:57;;;;;;;24.00;12.80;;;;;;;;;;5030868;28;20034;-71
2022/01/31 06:39:23;;;;;;;15.13;11.23;;;;;;;;;;5030312;28;20045;-71
2022/01/31 06:41:48;;;;;;;16.02;11.85;;;;;;;;;;5029382;28;20397;-69
2022/01/31 06:44:14;;;;;;;13.50;12.02;;;;;;;;;;5029803;28;20052;-69
2022/01/31 06:46:40;;;;;;;20.00;13.65;;;;;;;;;;5030499;28;20048;-69
2022/01/31 06:49:06;;;;;;;19.90;13.55;;;;;;;;;;5030507;28;20079;-69
2022/01/31 06:51:31;;;;;;;18.15;12.82;;;;;;;;;;5028906;28;20040;-69
2022/01/31 06:53:59;;;;;;;17.08;13.30;;;;;;;;;;5029588;28;20361;-69
2022/01/31 06:56:29;;;;;;;24.63;13.55;;;;;;;;;;5030337;28;20045;-69
2022/01/31 06:58:56;;;;;;;17.45;13.50;;;;;;;;;;5029063;28;20029;-68
2022/01/31 07:01:25;;;;;;;18.73;13.43;;;;;;;;;;5029563;28;20041;-68
2022/01/31 07:03:53;;;;;;;23.25;14.35;;;;;;;;;;5029758;28;20071;-69
2022/01/31 07:06:18;;;;;;;15.27;13.20;;;;;;;;;;5028053;28;20029;-69
2022/01/31 07:08:44;;;;;;;21.38;14.23;;;;;;;;;;5029668;28;20095;-69
2022/01/31 07:11:15;;;;;;;21.52;14.90;;;;;;;;;;5029958;28;20117;-69
2022/01/31 07:13:42;;;;;;;15.68;13.90;;;;;;;;;;5029050;28;20472;-69
2022/01/31 07:16:07;;;;;;;16.40;13.00;;;;;;;;;;5029462;28;20037;-69
2022/01/31 07:18:35;;;;;;;19.98;14.10;;;;;;;;;;5029989;28;20042;-69
2022/01/31 07:21:01;;;;;;;21.15;15.18;;;;;;;;;;5030121;28;20048;-69
2022/01/31 07:23:29;;;;;;;22.33;14.93;;;;;;;;;;5028969;28;20435;-69
2022/01/31 07:25:55;;;;;;;19.65;13.90;;;;;;;;;;5029770;28;20041;-69
2022/01/31 07:28:21;;;;;;;25.80;15.68;;;;;;;;;;5030367;28;20453;-69
2022/01/31 07:30:48;;;;;;;20.10;14.68;;;;;;;;;;5029051;28;20092;-69
2022/01/31 07:33:14;;;;;;;20.75;14.45;;;;;;;;;;5011815;28;20041;-68
2022/01/31 07:35:42;;;;;;;16.75;14.60;;;;;;;;;;5029778;28;20037;-68
2022/01/31 07:38:07;;;;;;;18.20;14.30;;;;;;;;;;5011166;28;20068;-68
2022/01/31 07:40:33;;;;;;;25.17;15.23;;;;;;;;;;5028751;28;20107;-68
2022/01/31 07:42:59;;;;;;;22.58;15.95;;;;;;;;;;5030403;28;20128;-69
2022/01/31 07:45:25;;;;;;;21.15;15.73;;;;;;;;;;5029614;28;20072;-68
2022/01/31 07:47:51;;;;;;;20.20;14.18;;;;;;;;;;5028793;28;20029;-68
2022/01/31 07:50:16;;;;;;;18.90;14.50;;;;;;;;;;5027245;28;20041;-68
2022/01/31 07:52:43;;;;;;;25.55;15.05;;;;;;;;;;5028645;28;20480;-68
2022/01/31 07:55:10;;;;;;;22.05;14.95;;;;;;;;;;5028250;28;20037;-68
2022/01/31 07:57:37;;;;;;;14.18;12.93;;;;;;;;;;5028391;28;20557;-68
2022/01/31 08:00:04;;;;;;;18.65;14.13;;;;;;;;;;5028998;28;20065;-68
2022/01/31 08:02:38;;;;;;;18.83;15.38;;;;;;;;;;5028836;28;20033;-67
2022/01/31 08:05:07;;;;;;;18.55;15.70;;;;;;;;;;5026520;28;20064;-68
2022/01/31 08:07:34;;;;;;;17.13;15.23;;;;;;;;;;5028755;28;20099;-68
2022/01/31 08:10:02;;;;;;;21.85;16.95;;;;;;;;;;5028714;28;20041;-68
2022/01/31 08:12:27;;;;;;;20.10;16.75;;;;;;;;;;5028418;28;20040;-68
2022/01/31 08:14:56;;;;;;;17.42;15.38;;;;;;;;;;5027108;28;20037;-68
2022/01/31 08:17:22;;;;;;;17.02;15.13;;;;;;;;;;5028318;28;20408;-68
2022/01/31 08:19:47;;;;;;;15.73;14.15;;;;;;;;;;5028661;28;20181;-68
2022/01/31 08:22:13;;;;;;;19.70;15.57;;;;;;;;;;5027706;28;20484;-68
2022/01/31 08:24:38;;;;;;;15.98;14.02;;;;;;;;;;5027139;28;20302;-68
2022/01/31 08:27:04;;;;;;;15.90;13.98;;;;;;;;;;5028564;28;20045;-68
2022/01/31 08:29:36;;;;;;;16.48;14.82;;;;;;;;;;5028372;28;20515;-67
2022/01/31 08:32:08;;;;;;;17.60;15.13;;;;;;;;;;5027209;28;20037;-68
2022/01/31 08:37:18;;;;;;;16.35;13.82;;;;;;;;;;5028153;28;20124;-68
2022/01/31 08:39:44;;;;;;;12.50;11.35;;;;;;;;;;5027498;28;20120;-68
2022/01/31 08:42:09;;;;;;;15.00;13.35;;;;;;;;;;5027515;28;20033;-68
2022/01/31 08:44:35;;;;;;;13.65;12.25;;;;;;;;;;5027808;28;20037;-68
2022/01/31 08:47:03;;;;;;;12.10;10.90;;;;;;;;;;5028041;28;20507;-69
2022/01/31 08:49:30;;;;;;;13.00;11.82;;;;;;;;;;5026898;28;20112;-67
2022/01/31 08:51:55;;;;;;;13.65;12.38;;;;;;;;;;5027160;28;20060;-68
2022/01/31 08:54:21;;;;;;;13.15;11.60;;;;;;;;;;5027683;28;20400;-68
2022/01/31 08:56:48;;;;;;;12.32;11.32;;;;;;;;;;5026653;28;20045;-67
2022/01/31 08:59:18;;;;;;;11.45;10.43;;;;;;;;;;5026639;28;20030;-68
2022/01/31 09:01:52;;;;;;;12.18;10.25;;;;;;;;;;5027882;28;20080;-68
2022/01/31 09:04:47;;;;;;;11.80;10.68;;;;;;;;;;5027722;28;20500;-68
2022/01/31 09:07:18;;;;;;;11.70;10.57;;;;;;;;;;5027432;28;20034;-67
2022/01/31 09:09:44;;;;;;;11.50;10.50;;;;;;;;;;5027463;28;20045;-68
2022/01/31 09:12:11;;;;;;;11.52;10.75;;;;;;;;;;5028141;28;20073;-69
2022/01/31 09:14:37;;;;;;;10.90;10.05;;;;;;;;;;5027032;28;20062;-68
2022/01/31 09:17:04;;;;;;;10.60;10.00;;;;;;;;;;5027893;28;20394;-68
2022/01/31 09:19:29;;;;;;;10.80;10.20;;;;;;;;;;5026220;28;20067;-68
2022/01/31 09:21:55;;;;;;;11.18;10.20;;;;;;;;;;5027333;28;20037;-69
2022/01/31 09:24:20;;;;;;;13.43;10.85;;;;;;;;;;5025761;28;20112;-69
2022/01/31 09:26:47;;;;;;;10.95;10.25;;;;;;;;;;5020335;28;20029;-67
2022/01/31 09:29:12;;;;;;;11.73;10.80;;;;;;;;;;5026589;28;20061;-69
2022/01/31 09:31:38;;;;;;;11.15;10.15;;;;;;;;;;5026968;28;20072;-69
2022/01/31 09:34:06;;;;;;;12.10;11.30;;;;;;;;;;5026563;28;20469;-69
2022/01/31 09:36:32;;;;;;;13.48;12.50;;;;;;;;;;5027594;28;20435;-68
2022/01/31 09:38:58;;;;;;;12.40;11.50;;;;;;;;;;5025232;28;20046;-69
2022/01/31 09:41:26;;;;;;;11.93;11.23;;;;;;;;;;5025617;28;20400;-68
2022/01/31 09:44:07;;;;;;;11.70;10.80;;;;;;;;;;5026743;28;20128;-69
2022/01/31 09:46:46;;;;;;;12.40;11.50;;;;;;;;;;5026872;28;20400;-68
2022/01/31 09:49:13;;;;;;;11.35;10.65;;;;;;;;;;5025504;28;20037;-69
2022/01/31 09:51:38;;;;;;;11.77;10.88;;;;;;;;;;5026534;28;20030;-69
2022/01/31 09:54:05;;;;;;;11.35;10.55;;;;;;;;;;5026636;28;20052;-69
2022/01/31 09:56:37;;;;;;;11.75;10.93;;;;;;;;;;5028883;28;20115;-67
2022/01/31 09:59:05;;;;;;;11.80;10.95;;;;;;;;;;5028721;28;20048;-68
2022/01/31 10:01:33;;;;;;;11.73;11.02;;;;;;;;;;5030330;28;20477;-68
2022/01/31 10:04:02;;;;;;;11.70;10.80;;;;;;;;;;5030382;28;20120;-68
2022/01/31 10:06:28;;;;;;;11.85;10.95;;;;;;;;;;5030261;28;20033;-68
2022/01/31 10:09:03;;;;;;;12.02;10.95;;;;;;;;;;5012416;28;20037;-68
2022/01/31 10:11:38;;;;;;;11.50;10.60;;;;;;;;;;5030676;28;20128;-69
2022/01/31 10:17:00;;;;;;;11.10;10.20;;;;;;;;;;5029159;28;20484;-68
2022/01/31 10:19:26;;;;;;;11.75;10.55;;;;;;;;;;5030625;28;20044;-69
2022/01/31 10:22:13;;;;;;;11.00;10.13;;;;;;;;;;5030295;28;20033;-69
2022/01/31 10:24:41;;;;;;;11.40;10.50;;;;;;;;;;5029958;28;20061;-68
2022/01/31 10:27:11;;;;;;;10.60;9.80;;;;;;;;;;5030366;28;20033;-68
2022/01/31 10:29:37;;;;;;;10.50;9.63;;;;;;;;;;5029000;28;20041;-68
2022/01/31 10:32:07;;;;;;;10.07;9.32;;;;;;;;;;5030832;28;20037;-68
2022/01/31 10:34:39;;;;;;;10.45;9.75;;;;;;;;;;5026954;28;20064;-68
2022/01/31 10:37:08;;;;;;;11.85;10.80;;;;;;;;;;5029964;28;20568;-68
2022/01/31 10:45:35;;;;;;;11.65;10.43;;;;;;;;;;5026779;28;20040;-68
2022/01/31 10:53:41;;;;;;;10.50;9.60;;;;;;;;;;5029655;28;20107;-67
2022/01/31 10:56:06;;;;;;;10.20;9.35;;;;;;;;;;5030635;28;20365;-68
2022/01/31 10:58:32;;;;;;;10.73;9.80;;;;;;;;;;5030500;28;20083;-67
2022/01/31 11:01:16;;;;;;;10.27;9.55;;;;;;;;;;5029567;28;20038;-69
2022/01/31 11:03:41;;;;;;;10.60;9.70;;;;;;;;;;5026780;28;20029;-68
2022/01/31 11:06:09;;;;;;;10.77;9.90;;;;;;;;;;5027324;28;20044;-68
2022/01/31 11:08:35;;;;;;;10.52;9.55;;;;;;;;;;5027825;28;20091;-68
2022/01/31 11:11:02;;;;;;;13.07;9.65;;;;;;;;;;5028579;28;20116;-67
2022/01/31 11:13:31;;;;;;;10.23;9.45;;;;;;;;;;5027097;28;20345;-68
2022/01/31 11:15:57;;;;;;;11.68;10.13;;;;;;;;;;5024243;28;20041;-68
2022/01/31 11:18:24;;;;;;;10.77;9.85;;;;;;;;;;5027974;28;20045;-68
2022/01/31 11:20:59;;;;;;;11.05;10.02;;;;;;;;;;5027040;28;20037;-69
2022/01/31 11:23:28;;;;;;;10.45;9.60;;;;;;;;;;5027280;28;20037;-69
2022/01/31 11:26:00;;;;;;;10.35;9.48;;;;;;;;;;5027886;28;20045;-66
2022/01/31 11:28:31;;;;;;;11.07;9.88;;;;;;;;;;5026428;28;20041;-68
2022/01/31 11:30:57;;;;;;;9.82;9.02;;;;;;;;;;5025064;28;20176;-68
2022/01/31 11:33:24;;;;;;;10.35;9.43;;;;;;;;;;5027380;28;20120;-68
2022/01/31 11:35:51;;;;;;;10.70;9.80;;;;;;;;;;5027417;28;20052;-69
2022/01/31 11:38:17;;;;;;;10.90;9.88;;;;;;;;;;5026048;28;20029;-68
2022/01/31 11:40:44;;;;;;;13.25;9.60;;;;;;;;;;5027215;28;20115;-68
2022/01/31 11:43:10;;;;;;;10.43;9.68;;;;;;;;;;5027784;28;20034;-69
2022/01/31 11:45:39;;;;;;;10.60;9.65;;;;;;;;;;5026017;28;20037;-68
2022/01/31 11:48:17;;;;;;;10.23;9.38;;;;;;;;;;5027093;28;20029;-68
2022/01/31 11:50:59;;;;;;;10.70;9.80;;;;;;;;;;5026717;28;20037;-68
2022/01/31 11:53:34;;;;;;;11.30;10.07;;;;;;;;;;5024982;28;20073;-68
2022/01/31 11:56:02;;;;;;;10.10;9.30;;;;;;;;;;5021740;28;20045;-68
2022/01/31 11:58:33;;;;;;;11.02;9.82;;;;;;;;;;5025873;28;20030;-68
2022/01/31 12:01:00;;;;;;;13.65;11.35;;;;;;;;;;5026605;28;20076;-68
2022/01/31 12:03:26;;;;;;;10.80;9.80;;;;;;;;;;5026291;28;20045;-68
2022/01/31 12:05:53;;;;;;;10.50;9.60;;;;;;;;;;5026489;28;20133;-68
2022/01/31 12:08:22;;;;;;;10.43;9.60;;;;;;;;;;5027359;28;20037;-68
2022/01/31 12:10:53;;;;;;;12.80;10.10;;;;;;;;;;5026073;28;20038;-69
2022/01/31 12:13:49;;;;;;;10.93;9.80;;;;;;;;;;5025501;28;20125;-68
2022/01/31 12:16:39;;;;;;;10.10;9.32;;;;;;;;;;5026826;28;20048;-69
2022/01/31 12:22:02;;;;;;;11.23;9.55;;;;;;;;;;5026302;28;20114;-69
2022/01/31 12:24:46;;;;;;;9.98;8.85;;;;;;;;;;5026482;28;20408;-69
2022/01/31 12:27:14;;;;;;;9.60;8.82;;;;;;;;;;5020688;28;20094;-69
2022/01/31 12:29:47;;;;;;;10.48;9.32;;;;;;;;;;5026752;28;20493;-68
2022/01/31 12:32:20;;;;;;;10.90;9.20;;;;;;;;;;5025914;28;20037;-69
2022/01/31 12:34:51;;;;;;;9.60;8.90;;;;;;;;;;5025447;28;20056;-70
2022/01/31 12:37:36;;;;;;;15.10;10.55;;;;;;;;;;5026887;28;20275;-69
2022/01/31 12:40:08;;;;;;;10.30;9.40;;;;;;;;;;5025774;28;20555;-68
2022/01/31 12:45:31;;;;;;;9.98;9.32;;;;;;;;;;5026592;28;20041;-68
2022/01/31 12:48:09;;;;;;;11.02;9.90;;;;;;;;;;5026859;28;20523;-69
2022/01/31 12:50:41;;;;;;;10.20;9.27;;;;;;;;;;5025127;28;20425;-68
2022/01/31 12:56:26;;;;;;;10.32;9.27;;;;;;;;;;5026392;28;20512;-70
2022/01/31 12:59:11;;;;;;;10.35;9.35;;;;;;;;;;5023941;28;20049;-69
2022/01/31 13:01:45;;;;;;;11.13;9.88;;;;;;;;;;5028875;28;20042;-69
2022/01/31 13:04:22;;;;;;;10.65;8.90;;;;;;;;;;5029444;28;20041;-70
2022/01/31 13:06:50;;;;;;;10.07;9.13;;;;;;;;;;5033009;28;20115;-69
2022/01/31 13:09:19;;;;;;;10.75;9.20;;;;;;;;;;5031995;28;20033;-69
2022/01/31 13:11:56;;;;;;;10.60;9.57;;;;;;;;;;5027105;28;20036;-69
2022/01/31 13:14:30;;;;;;;9.73;8.82;;;;;;;;;;5026122;28;20041;-69
2022/01/31 13:17:12;;;;;;;9.73;8.90;;;;;;;;;;5025752;28;20060;-69
2022/01/31 13:19:41;;;;;;;9.30;8.60;;;;;;;;;;5025269;28;20112;-69
2022/01/31 13:22:11;;;;;;;10.52;9.50;;;;;;;;;;5025891;28;20037;-69
2022/01/31 13:24:48;;;;;;;10.05;9.25;;;;;;;;;;5024559;28;20044;-68
2022/01/31 13:27:18;;;;;;;10.43;9.50;;;;;;;;;;5023228;28;20038;-68
2022/01/31 13:29:50;;;;;;;10.32;9.13;;;;;;;;;;5030806;28;20037;-69
2022/01/31 13:32:18;;;;;;;10.25;9.25;;;;;;;;;;5030696;28;20037;-69
2022/01/31 13:34:47;;;;;;;11.00;9.40;;;;;;;;;;5029277;28;20120;-69
2022/01/31 13:37:34;;;;;;;10.52;9.43;;;;;;;;;;5030028;28;20068;-69
2022/01/31 13:40:08;;;;;;;9.80;8.85;;;;;;;;;;5028198;28;20535;-70
2022/01/31 13:42:41;;;;;;;12.15;9.60;;;;;;;;;;5030530;28;20081;-70
2022/01/31 13:45:24;;;;;;;10.18;9.27;;;;;;;;;;5028777;28;20311;-69
2022/01/31 13:47:55;;;;;;;9.85;9.02;;;;;;;;;;5029396;28;20584;-69
2022/01/31 13:50:24;;;;;;;10.80;9.70;;;;;;;;;;5029564;28;20037;-69
2022/01/31 13:52:53;;;;;;;10.57;9.57;;;;;;;;;;5028632;28;20048;-69
2022/01/31 13:55:19;;;;;;;10.40;9.53;;;;;;;;;;5029009;28;20036;-69
2022/01/31 13:57:45;;;;;;;10.32;9.32;;;;;;;;;;5029961;28;20034;-69
2022/01/31 14:00:11;;;;;;;12.02;10.38;;;;;;;;;;5028863;28;20052;-69
2022/01/31 14:02:39;;;;;;;9.88;9.15;;;;;;;;;;5029218;28;20041;-68
2022/01/31 14:05:21;;;;;;;10.88;9.85;;;;;;;;;;5029458;28;20068;-69
2022/01/31 14:07:59;;;;;;;12.63;9.52;;;;;;;;;;5028268;28;20038;-69
2022/01/31 14:10:27;;;;;;;10.40;9.50;;;;;;;;;;5028275;28;20562;-69
2022/01/31 14:13:01;;;;;;;10.40;9.50;;;;;;;;;;5029157;28;20073;-69
2022/01/31 14:15:28;;;;;;;10.60;9.50;;;;;;;;;;5029093;28;20103;-69
2022/01/31 14:17:54;;;;;;;10.00;9.18;;;;;;;;;;5029705;28;20025;-69
2022/01/31 14:20:20;;;;;;;10.15;9.10;;;;;;;;;;5028488;28;20398;-69
2022/01/31 14:22:57;;;;;;;9.98;9.00;;;;;;;;;;5028557;28;20493;-69
2022/01/31 14:25:22;;;;;;;10.98;9.98;;;;;;;;;;5028682;28;20386;-69
2022/01/31 14:27:53;;;;;;;10.00;9.13;;;;;;;;;;5027616;28;20034;-69
2022/01/31 14:30:20;;;;;;;11.40;10.30;;;;;;;;;;5029028;28;20064;-69
2022/01/31 14:32:59;;;;;;;10.43;9.40;;;;;;;;;;5029173;28;20045;-69
2022/01/31 14:35:24;;;;;;;10.38;9.38;;;;;;;;;;5027961;28;20021;-69
2022/01/31 14:37:52;;;;;;;10.57;9.50;;;;;;;;;;5028246;28;20037;-69
2022/01/31 14:40:40;;;;;;;9.40;8.60;;;;;;;;;;5022416;28;20103;-70
2022/01/31 14:43:19;;;;;;;10.32;9.20;;;;;;;;;;5027621;28;20072;-68
2022/01/31 14:48:41;;;;;;;10.10;9.10;;;;;;;;;;5027914;28;20037;-68
2022/01/31 14:51:07;;;;;;;11.05;8.90;;;;;;;;;;5028483;28;20033;-69
2022/01/31 14:53:33;;;;;;;12.68;9.77;;;;;;;;;;5027153;28;20061;-68
2022/01/31 14:55:58;;;;;;;10.15;9.23;;;;;;;;;;5012096;28;20392;-69
2022/01/31 14:58:24;;;;;;;10.23;9.23;;;;;;;;;;5029687;28;20045;-69
2022/01/31 15:00:49;;;;;;;9.30;8.05;;;;;;;;;;5026563;28;20464;-69